sensor_id;sensor_type;location;lat;lon;timestamp;pressure;altitude;pressure_sealevel;temperature;humidity
70833;BME280;71099;59.528;17.886;2023-10-08T00:01:41;100558.56;;;2.82;66.65
70833;BME280;71099;59.528;17.886;2023-10-08T00:04:10;100551.00;;;2.81;66.78
70833;BME280;71099;59.528;17.886;2023-10-08T00:06:36;100563.66;;;2.82;66.43
70833;BME280;71099;59.528;17.886;2023-10-08T00:09:03;100558.38;;;2.85;66.16
70833;BME280;71099;59.528;17.886;2023-10-08T00:11:34;100565.06;;;2.86;66.11
70833;BME280;71099;59.528;17.886;2023-10-08T00:14:00;100566.22;;;2.82;66.40
70833;BME280;71099;59.528;17.886;2023-10-08T00:16:26;100577.50;;;2.78;66.48
70833;BME280;71099;59.528;17.886;2023-10-08T00:18:53;100568.28;;;2.76;66.77
70833;BME280;71099;59.528;17.886;2023-10-08T00:21:24;100563.81;;;2.79;66.46
70833;BME280;71099;59.528;17.886;2023-10-08T00:23:52;100568.84;;;2.81;66.53
70833;BME280;71099;59.528;17.886;2023-10-08T00:26:21;100560.84;;;2.73;66.64
70833;BME280;71099;59.528;17.886;2023-10-08T00:28:58;100568.28;;;2.76;66.27
70833;BME280;71099;59.528;17.886;2023-10-08T00:31:31;100570.75;;;2.77;66.41
70833;BME280;71099;59.528;17.886;2023-10-08T00:34:03;100570.56;;;2.80;66.90
70833;BME280;71099;59.528;17.886;2023-10-08T00:36:30;100577.66;;;2.75;66.75
70833;BME280;71099;59.528;17.886;2023-10-08T00:38:56;100577.88;;;2.72;66.41
70833;BME280;71099;59.528;17.886;2023-10-08T00:41:25;100585.50;;;2.72;66.83
70833;BME280;71099;59.528;17.886;2023-10-08T00:43:56;100575.84;;;2.77;66.91
70833;BME280;71099;59.528;17.886;2023-10-08T00:46:24;100580.22;;;2.75;66.87
70833;BME280;71099;59.528;17.886;2023-10-08T00:49:04;100579.50;;;2.73;66.52
70833;BME280;71099;59.528;17.886;2023-10-08T00:51:50;100580.06;;;2.64;66.86
70833;BME280;71099;59.528;17.886;2023-10-08T00:54:26;100586.81;;;2.65;66.80
70833;BME280;71099;59.528;17.886;2023-10-08T00:56:53;100579.91;;;2.67;66.87
70833;BME280;71099;59.528;17.886;2023-10-08T00:59:25;100575.31;;;2.72;66.34
70833;BME280;71099;59.528;17.886;2023-10-08T01:01:51;100579.91;;;2.67;66.13
70833;BME280;71099;59.528;17.886;2023-10-08T01:04:18;100568.50;;;2.73;66.72
70833;BME280;71099;59.528;17.886;2023-10-08T01:06:52;100576.13;;;2.73;65.94
70833;BME280;71099;59.528;17.886;2023-10-08T01:09:25;100571.44;;;2.67;66.40
70833;BME280;71099;59.528;17.886;2023-10-08T01:12:23;100571.72;;;2.62;66.76
70833;BME280;71099;59.528;17.886;2023-10-08T01:14:48;100575.63;;;2.68;66.51
70833;BME280;71099;59.528;17.886;2023-10-08T01:17:15;100582.81;;;2.61;66.79
70833;BME280;71099;59.528;17.886;2023-10-08T01:19:45;100569.22;;;2.48;66.85
70833;BME280;71099;59.528;17.886;2023-10-08T01:22:25;100584.38;;;2.64;67.62
70833;BME280;71099;59.528;17.886;2023-10-08T01:24:54;100578.81;;;2.57;67.32
70833;BME280;71099;59.528;17.886;2023-10-08T01:27:20;100587.72;;;2.64;67.49
70833;BME280;71099;59.528;17.886;2023-10-08T01:29:52;100592.28;;;2.59;66.56
70833;BME280;71099;59.528;17.886;2023-10-08T01:32:21;100585.16;;;2.64;66.76
70833;BME280;71099;59.528;17.886;2023-10-08T01:34:50;100588.56;;;2.51;67.08
70833;BME280;71099;59.528;17.886;2023-10-08T01:37:16;100602.13;;;2.51;67.23
70833;BME280;71099;59.528;17.886;2023-10-08T01:39:46;100590.84;;;2.55;67.04
70833;BME280;71099;59.528;17.886;2023-10-08T01:42:15;100591.84;;;2.53;66.83
70833;BME280;71099;59.528;17.886;2023-10-08T01:44:45;100590.84;;;2.55;66.97
70833;BME280;71099;59.528;17.886;2023-10-08T01:47:16;100583.38;;;2.52;66.85
70833;BME280;71099;59.528;17.886;2023-10-08T01:49:45;100598.19;;;2.60;67.00
70833;BME280;71099;59.528;17.886;2023-10-08T01:52:12;100594.28;;;2.54;66.63
70833;BME280;71099;59.528;17.886;2023-10-08T01:54:49;100607.03;;;2.54;66.95
70833;BME280;71099;59.528;17.886;2023-10-08T01:57:16;100599.19;;;2.57;67.00
70833;BME280;71099;59.528;17.886;2023-10-08T01:59:42;100598.41;;;2.57;67.16
70833;BME280;71099;59.528;17.886;2023-10-08T02:02:09;100608.19;;;2.63;66.70
70833;BME280;71099;59.528;17.886;2023-10-08T02:04:35;100605.53;;;2.64;67.23
70833;BME280;71099;59.528;17.886;2023-10-08T02:07:02;100602.66;;;2.56;67.39
70833;BME280;71099;59.528;17.886;2023-10-08T02:09:30;100606.13;;;2.55;67.28
70833;BME280;71099;59.528;17.886;2023-10-08T02:11:55;100616.13;;;2.58;67.13
70833;BME280;71099;59.528;17.886;2023-10-08T02:14:22;100621.94;;;2.60;67.38
70833;BME280;71099;59.528;17.886;2023-10-08T02:16:49;100618.66;;;2.58;67.32
70833;BME280;71099;59.528;17.886;2023-10-08T02:19:15;100617.56;;;2.62;67.53
70833;BME280;71099;59.528;17.886;2023-10-08T02:21:44;100624.78;;;2.56;66.98
70833;BME280;71099;59.528;17.886;2023-10-08T02:24:12;100618.03;;;2.55;67.50
70833;BME280;71099;59.528;17.886;2023-10-08T02:26:38;100632.41;;;2.56;67.63
70833;BME280;71099;59.528;17.886;2023-10-08T02:29:05;100636.88;;;2.52;67.49
70833;BME280;71099;59.528;17.886;2023-10-08T02:31:40;100633.88;;;2.60;67.63
70833;BME280;71099;59.528;17.886;2023-10-08T02:34:06;100627.75;;;2.62;67.38
70833;BME280;71099;59.528;17.886;2023-10-08T02:36:35;100633.03;;;2.59;67.50
70833;BME280;71099;59.528;17.886;2023-10-08T02:39:06;100625.69;;;2.55;68.13
70833;BME280;71099;59.528;17.886;2023-10-08T02:41:40;100640.72;;;2.45;67.88
70833;BME280;71099;59.528;17.886;2023-10-08T02:44:07;100643.97;;;2.47;68.11
70833;BME280;71099;59.528;17.886;2023-10-08T02:46:38;100632.59;;;2.53;67.96
70833;BME280;71099;59.528;17.886;2023-10-08T02:49:07;100637.78;;;2.51;68.30
70833;BME280;71099;59.528;17.886;2023-10-08T02:51:36;100638.88;;;2.47;68.19
70833;BME280;71099;59.528;17.886;2023-10-08T02:54:01;100645.81;;;2.45;68.26
70833;BME280;71099;59.528;17.886;2023-10-08T02:56:30;100658.91;;;2.53;68.10
70833;BME280;71099;59.528;17.886;2023-10-08T02:58:57;100655.41;;;2.54;67.99
70833;BME280;71099;59.528;17.886;2023-10-08T03:01:23;100657.06;;;2.55;68.14
70833;BME280;71099;59.528;17.886;2023-10-08T03:03:48;100658.16;;;2.51;68.39
70833;BME280;71099;59.528;17.886;2023-10-08T03:06:14;100666.63;;;2.52;68.19
70833;BME280;71099;59.528;17.886;2023-10-08T03:08:40;100655.22;;;2.57;68.37
70833;BME280;71099;59.528;17.886;2023-10-08T03:11:09;100652.59;;;2.59;67.96
70833;BME280;71099;59.528;17.886;2023-10-08T03:13:43;100655.59;;;2.65;68.02
70833;BME280;71099;59.528;17.886;2023-10-08T03:16:12;100657.16;;;2.68;68.80
70833;BME280;71099;59.528;17.886;2023-10-08T03:18:39;100653.94;;;2.64;68.20
70833;BME280;71099;59.528;17.886;2023-10-08T03:21:10;100653.03;;;2.65;67.68
70833;BME280;71099;59.528;17.886;2023-10-08T03:23:56;100671.00;;;2.64;68.15
70833;BME280;71099;59.528;17.886;2023-10-08T03:26:23;100660.16;;;2.60;68.10
70833;BME280;71099;59.528;17.886;2023-10-08T03:29:04;100672.91;;;2.60;68.03
70833;BME280;71099;59.528;17.886;2023-10-08T03:31:41;100673.44;;;2.65;67.92
70833;BME280;71099;59.528;17.886;2023-10-08T03:34:19;100676.72;;;2.67;68.35
70833;BME280;71099;59.528;17.886;2023-10-08T03:36:45;100669.16;;;2.66;68.18
70833;BME280;71099;59.528;17.886;2023-10-08T03:39:12;100685.06;;;2.69;68.62
70833;BME280;71099;59.528;17.886;2023-10-08T03:41:41;100698.72;;;2.68;67.96
70833;BME280;71099;59.528;17.886;2023-10-08T03:44:08;100706.09;;;2.73;68.12
70833;BME280;71099;59.528;17.886;2023-10-08T03:46:42;100700.72;;;2.77;67.71
70833;BME280;71099;59.528;17.886;2023-10-08T03:49:11;100708.56;;;2.74;67.47
70833;BME280;71099;59.528;17.886;2023-10-08T03:51:50;100705.56;;;2.82;68.10
70833;BME280;71099;59.528;17.886;2023-10-08T03:54:24;100712.19;;;2.84;67.37
70833;BME280;71099;59.528;17.886;2023-10-08T03:56:56;100712.72;;;2.89;67.97
70833;BME280;71099;59.528;17.886;2023-10-08T03:59:21;100708.25;;;2.93;67.82
70833;BME280;71099;59.528;17.886;2023-10-08T04:02:07;100724.28;;;2.95;67.36
70833;BME280;71099;59.528;17.886;2023-10-08T04:04:43;100717.88;;;3.02;67.10
70833;BME280;71099;59.528;17.886;2023-10-08T04:07:40;100720.53;;;3.01;67.08
70833;BME280;71099;59.528;17.886;2023-10-08T04:10:31;100732.53;;;2.99;66.51
70833;BME280;71099;59.528;17.886;2023-10-08T04:13:05;100740.75;;;3.04;67.37
70833;BME280;71099;59.528;17.886;2023-10-08T04:15:34;100735.44;;;3.07;67.41
70833;BME280;71099;59.528;17.886;2023-10-08T04:18:00;100742.34;;;3.05;67.22
70833;BME280;71099;59.528;17.886;2023-10-08T04:20:28;100737.94;;;3.08;66.94
70833;BME280;71099;59.528;17.886;2023-10-08T04:23:07;100741.47;;;3.06;67.05
70833;BME280;71099;59.528;17.886;2023-10-08T04:25:39;100759.50;;;3.03;67.60
70833;BME280;71099;59.528;17.886;2023-10-08T04:28:08;100748.13;;;3.08;67.97
70833;BME280;71099;59.528;17.886;2023-10-08T04:30:38;100764.41;;;3.06;67.64
70833;BME280;71099;59.528;17.886;2023-10-08T04:33:07;100759.50;;;3.03;67.96
70833;BME280;71099;59.528;17.886;2023-10-08T04:35:41;100774.78;;;3.03;67.44
70833;BME280;71099;59.528;17.886;2023-10-08T04:38:27;100784.91;;;3.04;67.73
70833;BME280;71099;59.528;17.886;2023-10-08T04:40:54;100792.25;;;3.09;67.41
70833;BME280;71099;59.528;17.886;2023-10-08T04:43:21;100783.00;;;3.08;67.66
70833;BME280;71099;59.528;17.886;2023-10-08T04:45:51;100791.91;;;3.15;67.79
70833;BME280;71099;59.528;17.886;2023-10-08T04:48:16;100787.31;;;3.20;67.36
70833;BME280;71099;59.528;17.886;2023-10-08T04:50:49;100796.81;;;3.18;66.49
70833;BME280;71099;59.528;17.886;2023-10-08T04:53:26;100804.09;;;3.24;67.02
70833;BME280;71099;59.528;17.886;2023-10-08T04:56:03;100802.63;;;3.20;66.79
70833;BME280;71099;59.528;17.886;2023-10-08T04:58:39;100812.00;;;3.19;66.94
70833;BME280;71099;59.528;17.886;2023-10-08T05:01:06;100801.72;;;3.21;66.62
70833;BME280;71099;59.528;17.886;2023-10-08T05:03:56;100807.38;;;3.26;67.21
70833;BME280;71099;59.528;17.886;2023-10-08T05:06:28;100814.28;;;3.24;66.89
70833;BME280;71099;59.528;17.886;2023-10-08T05:09:14;100819.19;;;3.27;66.63
70833;BME280;71099;59.528;17.886;2023-10-08T05:11:47;100813.31;;;3.26;66.06
70833;BME280;71099;59.528;17.886;2023-10-08T05:14:31;100819.94;;;3.29;66.35
70833;BME280;71099;59.528;17.886;2023-10-08T05:17:04;100826.56;;;3.31;66.18
70833;BME280;71099;59.528;17.886;2023-10-08T05:19:40;100812.16;;;3.30;65.43
70833;BME280;71099;59.528;17.886;2023-10-08T05:22:12;100824.13;;;3.30;66.88
70833;BME280;71099;59.528;17.886;2023-10-08T05:24:54;100835.75;;;3.34;66.32
70833;BME280;71099;59.528;17.886;2023-10-08T05:27:40;100850.28;;;3.33;65.94
70833;BME280;71099;59.528;17.886;2023-10-08T05:30:23;100829.03;;;3.33;66.18
70833;BME280;71099;59.528;17.886;2023-10-08T05:33:08;100843.41;;;3.34;66.60
70833;BME280;71099;59.528;17.886;2023-10-08T05:35:51;100844.16;;;3.36;66.00
70833;BME280;71099;59.528;17.886;2023-10-08T05:38:27;100854.56;;;3.33;65.83
70833;BME280;71099;59.528;17.886;2023-10-08T05:40:56;100856.84;;;3.37;65.65
70833;BME280;71099;59.528;17.886;2023-10-08T05:43:22;100857.53;;;3.39;65.83
70833;BME280;71099;59.528;17.886;2023-10-08T05:46:13;100867.75;;;3.39;65.74
70833;BME280;71099;59.528;17.886;2023-10-08T05:48:54;100876.03;;;3.43;65.29
70833;BME280;71099;59.528;17.886;2023-10-08T05:51:30;100879.28;;;3.45;65.90
70833;BME280;71099;59.528;17.886;2023-10-08T05:54:17;100887.69;;;3.47;66.37
70833;BME280;71099;59.528;17.886;2023-10-08T05:57:07;100880.94;;;3.46;66.13
70833;BME280;71099;59.528;17.886;2023-10-08T05:59:44;100894.44;;;3.48;65.27
70833;BME280;71099;59.528;17.886;2023-10-08T06:02:23;100899.56;;;3.48;65.84
70833;BME280;71099;59.528;17.886;2023-10-08T06:04:58;100904.28;;;3.54;65.62
70833;BME280;71099;59.528;17.886;2023-10-08T06:10:25;100916.31;;;3.52;65.63
70833;BME280;71099;59.528;17.886;2023-10-08T06:13:02;100916.56;;;3.62;66.07
70833;BME280;71099;59.528;17.886;2023-10-08T06:15:50;100924.13;;;3.63;65.76
70833;BME280;71099;59.528;17.886;2023-10-08T06:18:17;100923.41;;;3.61;65.10
70833;BME280;71099;59.528;17.886;2023-10-08T06:20:44;100932.31;;;3.68;66.07
70833;BME280;71099;59.528;17.886;2023-10-08T06:23:15;100944.38;;;3.66;65.55
70833;BME280;71099;59.528;17.886;2023-10-08T06:25:47;100939.06;;;3.69;65.98
70833;BME280;71099;59.528;17.886;2023-10-08T06:28:19;100949.81;;;3.74;65.24
70833;BME280;71099;59.528;17.886;2023-10-08T06:30:50;100946.09;;;3.80;65.40
70833;BME280;71099;59.528;17.886;2023-10-08T06:33:19;100952.84;;;3.81;65.55
70833;BME280;71099;59.528;17.886;2023-10-08T06:35:46;100958.56;;;3.84;65.65
70833;BME280;71099;59.528;17.886;2023-10-08T06:38:30;100956.53;;;3.89;65.46
70833;BME280;71099;59.528;17.886;2023-10-08T06:40:59;100965.56;;;3.95;65.85
70833;BME280;71099;59.528;17.886;2023-10-08T06:43:37;100961.28;;;3.96;66.22
70833;BME280;71099;59.528;17.886;2023-10-08T06:46:06;100971.50;;;3.96;65.62
70833;BME280;71099;59.528;17.886;2023-10-08T06:48:38;100964.75;;;3.94;65.40
70833;BME280;71099;59.528;17.886;2023-10-08T06:51:08;100981.41;;;4.00;66.12
70833;BME280;71099;59.528;17.886;2023-10-08T06:53:41;100981.34;;;4.02;65.09
70833;BME280;71099;59.528;17.886;2023-10-08T06:56:07;100976.22;;;4.02;65.33
70833;BME280;71099;59.528;17.886;2023-10-08T06:58:35;100976.94;;;4.04;65.88
70833;BME280;71099;59.528;17.886;2023-10-08T07:01:01;100976.78;;;4.07;65.18
70833;BME280;71099;59.528;17.886;2023-10-08T07:03:30;100982.31;;;4.13;65.94
70833;BME280;71099;59.528;17.886;2023-10-08T07:05:56;100979.56;;;4.16;64.98
70833;BME280;71099;59.528;17.886;2023-10-08T07:08:32;100974.91;;;4.23;64.73
70833;BME280;71099;59.528;17.886;2023-10-08T07:10:59;100988.22;;;4.28;64.41
70833;BME280;71099;59.528;17.886;2023-10-08T07:13:27;100994.22;;;4.27;63.86
70833;BME280;71099;59.528;17.886;2023-10-08T07:15:55;100999.06;;;4.31;64.47
70833;BME280;71099;59.528;17.886;2023-10-08T07:18:22;101004.41;;;4.41;63.73
70833;BME280;71099;59.528;17.886;2023-10-08T07:20:54;101020.38;;;4.44;63.86
70833;BME280;71099;59.528;17.886;2023-10-08T07:23:22;101008.75;;;4.53;63.89
70833;BME280;71099;59.528;17.886;2023-10-08T07:25:57;101025.34;;;4.60;63.91
70833;BME280;71099;59.528;17.886;2023-10-08T07:28:41;101023.34;;;4.65;63.53
70833;BME280;71099;59.528;17.886;2023-10-08T07:31:20;101024.78;;;4.69;62.87
70833;BME280;71099;59.528;17.886;2023-10-08T07:33:48;101026.66;;;4.80;62.40
70833;BME280;71099;59.528;17.886;2023-10-08T07:36:24;101040.28;;;4.80;62.30
70833;BME280;71099;59.528;17.886;2023-10-08T07:38:52;101045.81;;;4.87;62.67
70833;BME280;71099;59.528;17.886;2023-10-08T07:41:17;101047.34;;;4.89;62.64
70833;BME280;71099;59.528;17.886;2023-10-08T07:43:46;101052.69;;;4.99;62.77
70833;BME280;71099;59.528;17.886;2023-10-08T07:46:23;101046.69;;;5.13;62.08
70833;BME280;71099;59.528;17.886;2023-10-08T07:48:48;101060.00;;;5.18;61.79
70833;BME280;71099;59.528;17.886;2023-10-08T07:51:15;101065.22;;;5.29;62.54
70833;BME280;71099;59.528;17.886;2023-10-08T07:53:42;101066.91;;;5.43;60.31
70833;BME280;71099;59.528;17.886;2023-10-08T07:56:08;101068.97;;;5.50;61.13
70833;BME280;71099;59.528;17.886;2023-10-08T07:58:37;101073.25;;;5.62;61.06
70833;BME280;71099;59.528;17.886;2023-10-08T08:01:11;101069.38;;;5.69;60.33
70833;BME280;71099;59.528;17.886;2023-10-08T08:03:39;101063.63;;;5.66;60.03
70833;BME280;71099;59.528;17.886;2023-10-08T08:06:08;101062.81;;;5.65;59.65
70833;BME280;71099;59.528;17.886;2023-10-08T08:08:36;101082.06;;;5.58;59.46
70833;BME280;71099;59.528;17.886;2023-10-08T08:11:05;101079.81;;;5.66;59.79
70833;BME280;71099;59.528;17.886;2023-10-08T08:13:38;101096.41;;;5.73;60.71
70833;BME280;71099;59.528;17.886;2023-10-08T08:16:03;101076.66;;;5.75;60.05
70833;BME280;71099;59.528;17.886;2023-10-08T08:18:52;101089.66;;;5.72;59.97
70833;BME280;71099;59.528;17.886;2023-10-08T08:21:20;101098.06;;;5.74;60.06
70833;BME280;71099;59.528;17.886;2023-10-08T08:23:49;101092.75;;;5.77;58.69
70833;BME280;71099;59.528;17.886;2023-10-08T08:28:54;101105.03;;;5.85;58.67
70833;BME280;71099;59.528;17.886;2023-10-08T08:31:20;101109.97;;;5.88;59.40
70833;BME280;71099;59.528;17.886;2023-10-08T08:33:46;101113.53;;;5.85;59.31
70833;BME280;71099;59.528;17.886;2023-10-08T08:36:35;101120.00;;;5.91;59.09
70833;BME280;71099;59.528;17.886;2023-10-08T08:39:04;101127.53;;;5.94;59.27
70833;BME280;71099;59.528;17.886;2023-10-08T08:41:37;101118.38;;;6.03;59.13
70833;BME280;71099;59.528;17.886;2023-10-08T08:44:02;101127.00;;;6.02;58.11
70833;BME280;71099;59.528;17.886;2023-10-08T08:46:34;101131.09;;;6.04;58.63
70833;BME280;71099;59.528;17.886;2023-10-08T08:49:07;101148.22;;;6.04;58.29
70833;BME280;71099;59.528;17.886;2023-10-08T08:51:36;101164.91;;;6.09;58.83
70833;BME280;71099;59.528;17.886;2023-10-08T08:54:02;101157.09;;;5.98;58.18
70833;BME280;71099;59.528;17.886;2023-10-08T08:56:35;101151.47;;;6.06;58.29
70833;BME280;71099;59.528;17.886;2023-10-08T08:59:02;101155.47;;;6.10;58.10
70833;BME280;71099;59.528;17.886;2023-10-08T09:01:29;101158.34;;;6.18;58.09
70833;BME280;71099;59.528;17.886;2023-10-08T09:04:02;101156.09;;;6.13;57.94
70833;BME280;71099;59.528;17.886;2023-10-08T09:06:33;101134.38;;;6.19;58.14
70833;BME280;71099;59.528;17.886;2023-10-08T09:09:03;101147.81;;;6.22;56.90
70833;BME280;71099;59.528;17.886;2023-10-08T09:11:50;101160.31;;;6.27;57.23
70833;BME280;71099;59.528;17.886;2023-10-08T09:14:21;101163.38;;;6.32;56.92
70833;BME280;71099;59.528;17.886;2023-10-08T09:16:48;101154.06;;;6.31;57.07
70833;BME280;71099;59.528;17.886;2023-10-08T09:19:15;101171.38;;;6.40;55.45
70833;BME280;71099;59.528;17.886;2023-10-08T09:22:07;101160.41;;;6.38;55.89
70833;BME280;71099;59.528;17.886;2023-10-08T09:24:34;101163.06;;;6.49;55.75
70833;BME280;71099;59.528;17.886;2023-10-08T09:27:08;101167.09;;;6.64;55.90
70833;BME280;71099;59.528;17.886;2023-10-08T09:29:35;101181.44;;;6.79;55.47
70833;BME280;71099;59.528;17.886;2023-10-08T09:32:10;101173.66;;;6.81;54.82
70833;BME280;71099;59.528;17.886;2023-10-08T09:34:36;101184.69;;;6.94;55.15
70833;BME280;71099;59.528;17.886;2023-10-08T09:37:01;101182.25;;;6.93;54.39
70833;BME280;71099;59.528;17.886;2023-10-08T09:39:28;101199.47;;;6.91;53.85
70833;BME280;71099;59.528;17.886;2023-10-08T09:41:56;101199.06;;;6.97;53.76
70833;BME280;71099;59.528;17.886;2023-10-08T09:44:23;101198.53;;;7.04;54.66
70833;BME280;71099;59.528;17.886;2023-10-08T09:46:54;101201.47;;;7.11;54.29
70833;BME280;71099;59.528;17.886;2023-10-08T09:49:32;101210.00;;;7.11;54.59
70833;BME280;71099;59.528;17.886;2023-10-08T09:52:02;101199.75;;;7.11;53.87
70833;BME280;71099;59.528;17.886;2023-10-08T09:54:39;101207.53;;;7.10;53.86
70833;BME280;71099;59.528;17.886;2023-10-08T09:57:08;101218.78;;;7.20;54.48
70833;BME280;71099;59.528;17.886;2023-10-08T09:59:35;101227.69;;;7.27;53.50
70833;BME280;71099;59.528;17.886;2023-10-08T10:02:03;101229.34;;;7.28;53.31
70833;BME280;71099;59.528;17.886;2023-10-08T10:04:31;101225.34;;;7.24;52.89
70833;BME280;71099;59.528;17.886;2023-10-08T10:07:09;101236.13;;;7.29;52.94
70833;BME280;71099;59.528;17.886;2023-10-08T10:09:38;101234.97;;;7.33;52.75
70833;BME280;71099;59.528;17.886;2023-10-08T10:12:04;101241.88;;;7.32;51.67
70833;BME280;71099;59.528;17.886;2023-10-08T10:14:42;101240.41;;;7.41;52.94
70833;BME280;71099;59.528;17.886;2023-10-08T10:17:09;101242.41;;;7.49;52.93
70833;BME280;71099;59.528;17.886;2023-10-08T10:19:36;101232.94;;;7.49;52.66
70833;BME280;71099;59.528;17.886;2023-10-08T10:22:02;101238.09;;;7.49;51.60
70833;BME280;71099;59.528;17.886;2023-10-08T10:24:37;101257.09;;;7.47;51.25
70833;BME280;71099;59.528;17.886;2023-10-08T10:27:13;101244.88;;;7.50;50.50
70833;BME280;71099;59.528;17.886;2023-10-08T10:29:43;101249.56;;;7.56;50.85
70833;BME280;71099;59.528;17.886;2023-10-08T10:32:11;101242.50;;;7.71;51.30
70833;BME280;71099;59.528;17.886;2023-10-08T10:34:41;101245.94;;;7.82;52.02
70833;BME280;71099;59.528;17.886;2023-10-08T10:37:07;101264.28;;;7.89;51.07
70833;BME280;71099;59.528;17.886;2023-10-08T10:39:53;101264.47;;;7.75;49.71
70833;BME280;71099;59.528;17.886;2023-10-08T10:42:21;101237.06;;;7.86;50.25
70833;BME280;71099;59.528;17.886;2023-10-08T10:44:48;101262.50;;;7.78;50.24
70833;BME280;71099;59.528;17.886;2023-10-08T10:47:18;101242.19;;;7.75;49.29
70833;BME280;71099;59.528;17.886;2023-10-08T10:49:48;101251.03;;;7.71;50.11
70833;BME280;71099;59.528;17.886;2023-10-08T10:52:40;101252.41;;;7.88;50.90
70833;BME280;71099;59.528;17.886;2023-10-08T10:55:13;101256.97;;;7.96;50.83
70833;BME280;71099;59.528;17.886;2023-10-08T10:57:55;101263.97;;;7.94;51.50
70833;BME280;71099;59.528;17.886;2023-10-08T11:00:22;101260.94;;;7.89;50.06
70833;BME280;71099;59.528;17.886;2023-10-08T11:02:57;101267.00;;;7.88;50.35
70833;BME280;71099;59.528;17.886;2023-10-08T11:05:27;101267.69;;;7.90;50.72
70833;BME280;71099;59.528;17.886;2023-10-08T11:07:57;101273.38;;;8.06;51.60
70833;BME280;71099;59.528;17.886;2023-10-08T11:10:39;101280.84;;;8.09;50.30
70833;BME280;71099;59.528;17.886;2023-10-08T11:13:06;101276.06;;;8.15;49.73
70833;BME280;71099;59.528;17.886;2023-10-08T11:15:40;101279.00;;;8.22;49.94
70833;BME280;71099;59.528;17.886;2023-10-08T11:18:13;101287.66;;;8.21;49.52
70833;BME280;71099;59.528;17.886;2023-10-08T11:20:41;101282.88;;;8.27;49.42
70833;BME280;71099;59.528;17.886;2023-10-08T11:25:58;101295.25;;;8.22;48.27
70833;BME280;71099;59.528;17.886;2023-10-08T11:28:28;101310.09;;;8.19;48.93
70833;BME280;71099;59.528;17.886;2023-10-08T11:30:54;101304.78;;;8.33;49.15
70833;BME280;71099;59.528;17.886;2023-10-08T11:33:19;101302.78;;;8.37;49.24
70833;BME280;71099;59.528;17.886;2023-10-08T11:36:00;101302.19;;;8.33;49.03
70833;BME280;71099;59.528;17.886;2023-10-08T11:38:26;101312.88;;;8.40;48.31
70833;BME280;71099;59.528;17.886;2023-10-08T11:40:54;101318.03;;;8.40;49.15
70833;BME280;71099;59.528;17.886;2023-10-08T11:43:24;101315.78;;;8.35;49.36
70833;BME280;71099;59.528;17.886;2023-10-08T11:45:51;101311.13;;;8.40;49.62
70833;BME280;71099;59.528;17.886;2023-10-08T11:48:17;101315.00;;;8.46;49.16
70833;BME280;71099;59.528;17.886;2023-10-08T11:50:51;101317.91;;;8.52;49.32
70833;BME280;71099;59.528;17.886;2023-10-08T11:53:16;101317.47;;;8.58;50.11
70833;BME280;71099;59.528;17.886;2023-10-08T11:55:44;101312.09;;;8.61;48.96
70833;BME280;71099;59.528;17.886;2023-10-08T11:58:10;101305.97;;;8.51;48.66
70833;BME280;71099;59.528;17.886;2023-10-08T12:00:39;101313.47;;;8.43;49.05
70833;BME280;71099;59.528;17.886;2023-10-08T12:03:11;101320.97;;;8.46;50.31
70833;BME280;71099;59.528;17.886;2023-10-08T12:05:38;101315.13;;;8.55;50.58
70833;BME280;71099;59.528;17.886;2023-10-08T12:08:15;101322.75;;;8.68;50.90
70833;BME280;71099;59.528;17.886;2023-10-08T12:10:44;101319.34;;;8.67;50.13
70833;BME280;71099;59.528;17.886;2023-10-08T12:13:12;101318.06;;;8.62;50.29
70833;BME280;71099;59.528;17.886;2023-10-08T12:15:37;101309.38;;;8.52;49.90
70833;BME280;71099;59.528;17.886;2023-10-08T12:18:08;101321.41;;;8.51;48.38
70833;BME280;71099;59.528;17.886;2023-10-08T12:20:35;101323.75;;;8.43;47.75
70833;BME280;71099;59.528;17.886;2023-10-08T12:23:02;101329.03;;;8.53;48.28
70833;BME280;71099;59.528;17.886;2023-10-08T12:25:28;101331.03;;;8.60;49.11
70833;BME280;71099;59.528;17.886;2023-10-08T12:27:53;101331.72;;;8.62;48.82
70833;BME280;71099;59.528;17.886;2023-10-08T12:30:19;101335.69;;;8.55;48.16
70833;BME280;71099;59.528;17.886;2023-10-08T12:32:55;101332.56;;;8.63;49.66
70833;BME280;71099;59.528;17.886;2023-10-08T12:35:23;101329.88;;;8.64;49.61
70833;BME280;71099;59.528;17.886;2023-10-08T12:37:49;101331.88;;;8.61;48.87
70833;BME280;71099;59.528;17.886;2023-10-08T12:40:15;101344.97;;;8.58;49.15
70833;BME280;71099;59.528;17.886;2023-10-08T12:42:51;101343.41;;;8.55;48.67
70833;BME280;71099;59.528;17.886;2023-10-08T12:45:16;101346.00;;;8.55;48.89
70833;BME280;71099;59.528;17.886;2023-10-08T12:47:52;101343.41;;;8.55;49.46
70833;BME280;71099;59.528;17.886;2023-10-08T12:50:19;101343.50;;;8.43;48.93
70833;BME280;71099;59.528;17.886;2023-10-08T12:53:09;101343.94;;;8.37;49.56
70833;BME280;71099;59.528;17.886;2023-10-08T12:55:37;101349.47;;;8.43;49.50
70833;BME280;71099;59.528;17.886;2023-10-08T12:58:05;101344.09;;;8.46;48.69
70833;BME280;71099;59.528;17.886;2023-10-08T13:00:36;101347.00;;;8.42;48.31
70833;BME280;71099;59.528;17.886;2023-10-08T13:03:06;101353.56;;;8.46;49.08
70833;BME280;71099;59.528;17.886;2023-10-08T13:05:43;101338.44;;;8.30;48.67
70833;BME280;71099;59.528;17.886;2023-10-08T13:08:10;101354.69;;;8.30;49.28
70833;BME280;71099;59.528;17.886;2023-10-08T13:10:41;101360.44;;;8.34;49.78
70833;BME280;71099;59.528;17.886;2023-10-08T13:13:12;101353.22;;;8.39;50.34
70833;BME280;71099;59.528;17.886;2023-10-08T13:15:40;101348.53;;;8.44;50.24
70833;BME280;71099;59.528;17.886;2023-10-08T13:18:07;101349.25;;;8.46;50.14
70833;BME280;71099;59.528;17.886;2023-10-08T13:20:33;101356.59;;;8.40;50.35